sensor_id;sensor_type;location;lat;lon;timestamp;P1;durP1;ratioP1;P2;durP2;ratioP2
82125;SDS011;71668;51.400;6.758;2024-02-23T00:02:14;0.50;;;0.50;;
82125;SDS011;71668;51.400;6.758;2024-02-23T00:04:41;2.43;;;0.80;;
82125;SDS011;71668;51.400;6.758;2024-02-23T00:07:08;0.67;;;0.60;;
82125;SDS011;71668;51.400;6.758;2024-02-23T00:09:35;0.67;;;0.67;;
82125;SDS011;71668;51.400;6.758;2024-02-23T00:12:02;0.60;;;0.60;;
82125;SDS011;71668;51.400;6.758;2024-02-23T00:14:30;0.67;;;0.67;;
82125;SDS011;71668;51.400;6.758;2024-02-23T00:17:02;1.97;;;1.10;;
82125;SDS011;71668;51.400;6.758;2024-02-23T00:19:30;1.23;;;0.80;;
82125;SDS011;71668;51.400;6.758;2024-02-23T00:21:57;1.10;;;1.00;;
82125;SDS011;71668;51.400;6.758;2024-02-23T00:24:26;1.43;;;1.00;;
82125;SDS011;71668;51.400;6.758;2024-02-23T00:26:53;1.10;;;1.00;;
82125;SDS011;71668;51.400;6.758;2024-02-23T00:29:20;1.60;;;0.90;;
82125;SDS011;71668;51.400;6.758;2024-02-23T00:31:48;1.97;;;1.10;;
82125;SDS011;71668;51.400;6.758;2024-02-23T00:34:15;1.23;;;1.00;;
82125;SDS011;71668;51.400;6.758;2024-02-23T00:36:42;1.70;;;1.10;;
82125;SDS011;71668;51.400;6.758;2024-02-23T00:39:11;1.47;;;1.03;;
82125;SDS011;71668;51.400;6.758;2024-02-23T00:41:40;1.27;;;0.90;;
82125;SDS011;71668;51.400;6.758;2024-02-23T00:44:07;3.23;;;1.20;;
82125;SDS011;71668;51.400;6.758;2024-02-23T00:46:36;2.03;;;1.07;;
82125;SDS011;71668;51.400;6.758;2024-02-23T00:49:03;0.93;;;0.80;;
82125;SDS011;71668;51.400;6.758;2024-02-23T00:51:39;2.17;;;1.07;;
82125;SDS011;71668;51.400;6.758;2024-02-23T00:54:05;1.27;;;0.90;;
82125;SDS011;71668;51.400;6.758;2024-02-23T00:56:34;1.63;;;1.40;;
82125;SDS011;71668;51.400;6.758;2024-02-23T00:59:16;2.07;;;1.13;;
82125;SDS011;71668;51.400;6.758;2024-02-23T01:01:43;2.07;;;1.07;;
82125;SDS011;71668;51.400;6.758;2024-02-23T01:04:10;1.93;;;0.90;;
82125;SDS011;71668;51.400;6.758;2024-02-23T01:06:36;1.57;;;1.07;;
82125;SDS011;71668;51.400;6.758;2024-02-23T01:09:03;1.83;;;1.10;;
82125;SDS011;71668;51.400;6.758;2024-02-23T01:11:30;1.43;;;1.03;;
82125;SDS011;71668;51.400;6.758;2024-02-23T01:13:57;2.07;;;1.00;;
82125;SDS011;71668;51.400;6.758;2024-02-23T01:16:24;2.40;;;1.00;;
82125;SDS011;71668;51.400;6.758;2024-02-23T01:18:51;1.73;;;1.13;;
82125;SDS011;71668;51.400;6.758;2024-02-23T01:21:18;2.47;;;1.23;;
82125;SDS011;71668;51.400;6.758;2024-02-23T01:23:45;1.50;;;0.87;;
82125;SDS011;71668;51.400;6.758;2024-02-23T01:26:11;3.17;;;1.00;;
82125;SDS011;71668;51.400;6.758;2024-02-23T01:28:39;1.27;;;0.90;;
82125;SDS011;71668;51.400;6.758;2024-02-23T01:31:09;3.20;;;2.20;;
82125;SDS011;71668;51.400;6.758;2024-02-23T01:33:39;4.30;;;2.00;;
82125;SDS011;71668;51.400;6.758;2024-02-23T01:36:06;5.37;;;2.93;;
82125;SDS011;71668;51.400;6.758;2024-02-23T01:38:34;7.37;;;2.73;;
82125;SDS011;71668;51.400;6.758;2024-02-23T01:41:01;4.60;;;2.20;;
82125;SDS011;71668;51.400;6.758;2024-02-23T01:43:28;6.67;;;2.73;;
82125;SDS011;71668;51.400;6.758;2024-02-23T01:45:55;5.67;;;3.03;;
82125;SDS011;71668;51.400;6.758;2024-02-23T01:48:22;6.77;;;3.40;;
82125;SDS011;71668;51.400;6.758;2024-02-23T01:50:49;5.00;;;2.90;;
82125;SDS011;71668;51.400;6.758;2024-02-23T01:53:16;6.33;;;3.40;;
82125;SDS011;71668;51.400;6.758;2024-02-23T01:55:45;6.80;;;2.50;;
82125;SDS011;71668;51.400;6.758;2024-02-23T01:58:13;3.40;;;1.73;;
82125;SDS011;71668;51.400;6.758;2024-02-23T02:00:41;7.73;;;2.47;;
82125;SDS011;71668;51.400;6.758;2024-02-23T02:03:08;5.63;;;2.77;;
82125;SDS011;71668;51.400;6.758;2024-02-23T02:05:38;7.37;;;3.27;;
82125;SDS011;71668;51.400;6.758;2024-02-23T02:08:05;8.30;;;3.27;;
82125;SDS011;71668;51.400;6.758;2024-02-23T02:10:32;6.77;;;3.43;;
82125;SDS011;71668;51.400;6.758;2024-02-23T02:13:05;11.73;;;8.17;;
82125;SDS011;71668;51.400;6.758;2024-02-23T02:15:34;10.57;;;6.83;;
82125;SDS011;71668;51.400;6.758;2024-02-23T02:18:01;8.20;;;4.07;;
82125;SDS011;71668;51.400;6.758;2024-02-23T02:20:28;4.57;;;2.50;;
82125;SDS011;71668;51.400;6.758;2024-02-23T02:22:59;4.47;;;2.40;;
82125;SDS011;71668;51.400;6.758;2024-02-23T02:25:26;6.13;;;2.53;;
82125;SDS011;71668;51.400;6.758;2024-02-23T02:27:53;5.60;;;2.00;;
82125;SDS011;71668;51.400;6.758;2024-02-23T02:30:20;5.83;;;2.10;;
82125;SDS011;71668;51.400;6.758;2024-02-23T02:32:46;5.00;;;1.80;;
82125;SDS011;71668;51.400;6.758;2024-02-23T02:35:13;8.40;;;2.37;;
82125;SDS011;71668;51.400;6.758;2024-02-23T02:37:40;5.73;;;2.10;;
82125;SDS011;71668;51.400;6.758;2024-02-23T02:40:07;6.13;;;2.10;;
82125;SDS011;71668;51.400;6.758;2024-02-23T02:42:34;5.17;;;2.37;;
82125;SDS011;71668;51.400;6.758;2024-02-23T02:45:01;8.20;;;2.50;;
82125;SDS011;71668;51.400;6.758;2024-02-23T02:47:29;5.37;;;2.20;;
82125;SDS011;71668;51.400;6.758;2024-02-23T02:49:56;5.90;;;2.40;;
82125;SDS011;71668;51.400;6.758;2024-02-23T02:52:23;7.27;;;2.37;;
82125;SDS011;71668;51.400;6.758;2024-02-23T02:54:50;7.23;;;2.93;;
82125;SDS011;71668;51.400;6.758;2024-02-23T02:57:17;8.60;;;3.00;;
82125;SDS011;71668;51.400;6.758;2024-02-23T02:59:44;10.80;;;2.53;;
82125;SDS011;71668;51.400;6.758;2024-02-23T03:02:12;7.33;;;2.87;;
82125;SDS011;71668;51.400;6.758;2024-02-23T03:04:38;6.40;;;2.73;;
82125;SDS011;71668;51.400;6.758;2024-02-23T03:07:05;7.57;;;3.90;;
82125;SDS011;71668;51.400;6.758;2024-02-23T03:09:32;8.00;;;3.97;;
82125;SDS011;71668;51.400;6.758;2024-02-23T03:11:59;9.30;;;4.10;;
82125;SDS011;71668;51.400;6.758;2024-02-23T03:14:25;6.93;;;3.93;;
82125;SDS011;71668;51.400;6.758;2024-02-23T03:16:52;7.23;;;3.30;;
82125;SDS011;71668;51.400;6.758;2024-02-23T03:19:19;7.83;;;3.40;;
82125;SDS011;71668;51.400;6.758;2024-02-23T03:21:49;5.97;;;2.33;;
82125;SDS011;71668;51.400;6.758;2024-02-23T03:24:16;6.83;;;3.00;;
82125;SDS011;71668;51.400;6.758;2024-02-23T03:26:42;6.60;;;2.60;;
82125;SDS011;71668;51.400;6.758;2024-02-23T03:29:10;5.00;;;2.60;;
82125;SDS011;71668;51.400;6.758;2024-02-23T03:31:37;5.53;;;2.50;;
82125;SDS011;71668;51.400;6.758;2024-02-23T03:34:04;6.70;;;2.77;;
82125;SDS011;71668;51.400;6.758;2024-02-23T03:36:31;9.33;;;2.90;;
82125;SDS011;71668;51.400;6.758;2024-02-23T03:38:57;5.70;;;2.13;;
82125;SDS011;71668;51.400;6.758;2024-02-23T03:41:24;8.30;;;1.70;;
82125;SDS011;71668;51.400;6.758;2024-02-23T03:43:51;7.60;;;2.40;;
82125;SDS011;71668;51.400;6.758;2024-02-23T03:46:18;7.47;;;3.97;;
82125;SDS011;71668;51.400;6.758;2024-02-23T03:48:46;7.33;;;3.00;;
82125;SDS011;71668;51.400;6.758;2024-02-23T03:51:12;5.07;;;1.60;;
82125;SDS011;71668;51.400;6.758;2024-02-23T03:53:39;4.43;;;1.47;;
82125;SDS011;71668;51.400;6.758;2024-02-23T03:56:06;4.40;;;1.20;;
82125;SDS011;71668;51.400;6.758;2024-02-23T03:58:33;3.37;;;1.30;;
82125;SDS011;71668;51.400;6.758;2024-02-23T04:01:00;3.33;;;1.10;;
82125;SDS011;71668;51.400;6.758;2024-02-23T04:03:28;5.17;;;1.40;;
82125;SDS011;71668;51.400;6.758;2024-02-23T04:05:55;5.37;;;1.40;;
82125;SDS011;71668;51.400;6.758;2024-02-23T04:08:22;4.80;;;1.47;;
82125;SDS011;71668;51.400;6.758;2024-02-23T04:10:49;4.00;;;1.37;;
82125;SDS011;71668;51.400;6.758;2024-02-23T04:13:15;4.07;;;1.17;;
82125;SDS011;71668;51.400;6.758;2024-02-23T04:15:44;5.47;;;1.20;;
82125;SDS011;71668;51.400;6.758;2024-02-23T04:18:10;3.17;;;1.20;;
82125;SDS011;71668;51.400;6.758;2024-02-23T04:20:37;5.07;;;1.60;;
82125;SDS011;71668;51.400;6.758;2024-02-23T04:23:04;4.83;;;1.73;;
82125;SDS011;71668;51.400;6.758;2024-02-23T04:25:31;4.30;;;1.40;;
82125;SDS011;71668;51.400;6.758;2024-02-23T04:27:58;5.97;;;3.47;;
82125;SDS011;71668;51.400;6.758;2024-02-23T04:30:25;6.20;;;1.50;;
82125;SDS011;71668;51.400;6.758;2024-02-23T04:32:52;4.00;;;1.50;;
82125;SDS011;71668;51.400;6.758;2024-02-23T04:35:19;6.03;;;1.40;;
82125;SDS011;71668;51.400;6.758;2024-02-23T04:37:52;2.60;;;1.20;;
82125;SDS011;71668;51.400;6.758;2024-02-23T04:40:20;3.30;;;1.43;;
82125;SDS011;71668;51.400;6.758;2024-02-23T04:42:46;6.30;;;1.30;;
82125;SDS011;71668;51.400;6.758;2024-02-23T04:45:13;4.73;;;1.47;;
82125;SDS011;71668;51.400;6.758;2024-02-23T04:47:42;3.87;;;1.33;;
82125;SDS011;71668;51.400;6.758;2024-02-23T04:50:13;3.83;;;1.50;;
82125;SDS011;71668;51.400;6.758;2024-02-23T04:52:40;4.53;;;1.27;;
82125;SDS011;71668;51.400;6.758;2024-02-23T04:55:07;3.50;;;1.40;;
82125;SDS011;71668;51.400;6.758;2024-02-23T04:57:36;3.80;;;1.17;;
82125;SDS011;71668;51.400;6.758;2024-02-23T05:00:04;3.93;;;1.33;;
82125;SDS011;71668;51.400;6.758;2024-02-23T05:02:33;3.73;;;1.50;;
82125;SDS011;71668;51.400;6.758;2024-02-23T05:05:05;4.27;;;1.10;;
82125;SDS011;71668;51.400;6.758;2024-02-23T05:07:33;3.00;;;1.30;;
82125;SDS011;71668;51.400;6.758;2024-02-23T05:10:00;4.90;;;1.10;;
82125;SDS011;71668;51.400;6.758;2024-02-23T05:12:27;3.77;;;1.30;;
82125;SDS011;71668;51.400;6.758;2024-02-23T05:14:54;4.33;;;1.30;;
82125;SDS011;71668;51.400;6.758;2024-02-23T05:17:25;4.73;;;1.80;;
82125;SDS011;71668;51.400;6.758;2024-02-23T05:19:52;4.57;;;1.37;;
82125;SDS011;71668;51.400;6.758;2024-02-23T05:22:19;3.93;;;1.50;;
82125;SDS011;71668;51.400;6.758;2024-02-23T05:24:47;5.30;;;1.50;;
82125;SDS011;71668;51.400;6.758;2024-02-23T05:27:16;5.90;;;1.50;;
82125;SDS011;71668;51.400;6.758;2024-02-23T05:29:53;4.27;;;1.80;;
82125;SDS011;71668;51.400;6.758;2024-02-23T05:32:19;4.23;;;1.47;;
82125;SDS011;71668;51.400;6.758;2024-02-23T05:34:46;4.50;;;1.33;;
82125;SDS011;71668;51.400;6.758;2024-02-23T05:37:17;5.37;;;1.60;;
82125;SDS011;71668;51.400;6.758;2024-02-23T05:39:44;9.63;;;2.03;;
82125;SDS011;71668;51.400;6.758;2024-02-23T05:42:13;4.67;;;1.50;;
82125;SDS011;71668;51.400;6.758;2024-02-23T05:44:43;7.00;;;1.37;;
82125;SDS011;71668;51.400;6.758;2024-02-23T05:47:11;5.40;;;1.50;;
82125;SDS011;71668;51.400;6.758;2024-02-23T05:49:40;4.10;;;1.30;;
82125;SDS011;71668;51.400;6.758;2024-02-23T05:52:07;8.50;;;1.70;;
82125;SDS011;71668;51.400;6.758;2024-02-23T05:54:34;5.60;;;1.50;;
82125;SDS011;71668;51.400;6.758;2024-02-23T05:57:01;4.90;;;1.93;;
82125;SDS011;71668;51.400;6.758;2024-02-23T05:59:29;5.70;;;1.30;;
82125;SDS011;71668;51.400;6.758;2024-02-23T06:01:56;6.60;;;1.63;;
82125;SDS011;71668;51.400;6.758;2024-02-23T06:04:24;4.90;;;1.50;;
82125;SDS011;71668;51.400;6.758;2024-02-23T06:06:53;5.27;;;1.43;;
82125;SDS011;71668;51.400;6.758;2024-02-23T06:09:25;4.57;;;1.60;;
82125;SDS011;71668;51.400;6.758;2024-02-23T06:11:52;5.07;;;1.40;;
82125;SDS011;71668;51.400;6.758;2024-02-23T06:14:23;6.30;;;1.47;;
82125;SDS011;71668;51.400;6.758;2024-02-23T06:16:50;6.13;;;1.63;;
82125;SDS011;71668;51.400;6.758;2024-02-23T06:19:17;5.83;;;1.70;;
82125;SDS011;71668;51.400;6.758;2024-02-23T06:21:47;4.87;;;1.70;;
82125;SDS011;71668;51.400;6.758;2024-02-23T06:24:15;4.37;;;1.67;;
82125;SDS011;71668;51.400;6.758;2024-02-23T06:26:43;6.40;;;1.93;;
82125;SDS011;71668;51.400;6.758;2024-02-23T06:29:10;6.37;;;1.67;;
82125;SDS011;71668;51.400;6.758;2024-02-23T06:31:37;4.17;;;1.60;;
82125;SDS011;71668;51.400;6.758;2024-02-23T06:34:05;6.43;;;1.60;;
82125;SDS011;71668;51.400;6.758;2024-02-23T06:36:32;7.70;;;1.83;;
82125;SDS011;71668;51.400;6.758;2024-02-23T06:38:59;7.87;;;2.10;;
82125;SDS011;71668;51.400;6.758;2024-02-23T06:41:26;3.67;;;1.50;;
82125;SDS011;71668;51.400;6.758;2024-02-23T06:43:53;4.00;;;1.73;;
82125;SDS011;71668;51.400;6.758;2024-02-23T06:46:19;6.10;;;1.93;;
82125;SDS011;71668;51.400;6.758;2024-02-23T06:48:47;5.97;;;2.10;;
82125;SDS011;71668;51.400;6.758;2024-02-23T06:51:14;6.03;;;1.80;;
82125;SDS011;71668;51.400;6.758;2024-02-23T06:53:42;5.90;;;2.30;;
82125;SDS011;71668;51.400;6.758;2024-02-23T06:56:09;5.43;;;1.97;;
82125;SDS011;71668;51.400;6.758;2024-02-23T06:58:36;5.40;;;1.80;;
82125;SDS011;71668;51.400;6.758;2024-02-23T07:01:03;2.80;;;1.67;;
82125;SDS011;71668;51.400;6.758;2024-02-23T07:03:35;5.07;;;1.90;;
82125;SDS011;71668;51.400;6.758;2024-02-23T07:06:02;7.37;;;1.93;;
82125;SDS011;71668;51.400;6.758;2024-02-23T07:08:29;4.83;;;1.60;;
82125;SDS011;71668;51.400;6.758;2024-02-23T07:10:56;4.73;;;1.60;;
82125;SDS011;71668;51.400;6.758;2024-02-23T07:13:23;3.53;;;1.37;;
82125;SDS011;71668;51.400;6.758;2024-02-23T07:15:50;7.80;;;1.83;;
82125;SDS011;71668;51.400;6.758;2024-02-23T07:18:17;5.57;;;2.07;;
82125;SDS011;71668;51.400;6.758;2024-02-23T07:20:44;6.60;;;1.77;;
82125;SDS011;71668;51.400;6.758;2024-02-23T07:23:11;4.97;;;1.80;;
82125;SDS011;71668;51.400;6.758;2024-02-23T07:25:38;6.20;;;1.87;;
82125;SDS011;71668;51.400;6.758;2024-02-23T07:28:05;3.43;;;1.30;;
82125;SDS011;71668;51.400;6.758;2024-02-23T07:30:32;2.13;;;1.30;;
82125;SDS011;71668;51.400;6.758;2024-02-23T07:32:58;4.87;;;1.73;;
82125;SDS011;71668;51.400;6.758;2024-02-23T07:35:25;4.57;;;1.70;;
82125;SDS011;71668;51.400;6.758;2024-02-23T07:37:52;4.57;;;1.53;;
82125;SDS011;71668;51.400;6.758;2024-02-23T07:40:19;6.87;;;1.73;;
82125;SDS011;71668;51.400;6.758;2024-02-23T07:42:48;8.77;;;2.17;;
82125;SDS011;71668;51.400;6.758;2024-02-23T07:45:15;2.93;;;1.53;;
82125;SDS011;71668;51.400;6.758;2024-02-23T07:47:42;5.03;;;1.67;;
82125;SDS011;71668;51.400;6.758;2024-02-23T07:50:09;5.30;;;1.87;;
82125;SDS011;71668;51.400;6.758;2024-02-23T07:52:36;4.17;;;1.50;;
82125;SDS011;71668;51.400;6.758;2024-02-23T07:55:05;4.83;;;1.80;;
82125;SDS011;71668;51.400;6.758;2024-02-23T07:57:32;4.87;;;1.27;;
82125;SDS011;71668;51.400;6.758;2024-02-23T08:00:01;4.50;;;1.43;;
82125;SDS011;71668;51.400;6.758;2024-02-23T08:02:37;5.87;;;1.80;;
82125;SDS011;71668;51.400;6.758;2024-02-23T08:05:05;4.27;;;1.60;;
82125;SDS011;71668;51.400;6.758;2024-02-23T08:07:33;4.73;;;1.50;;
82125;SDS011;71668;51.400;6.758;2024-02-23T08:10:00;4.47;;;1.53;;
82125;SDS011;71668;51.400;6.758;2024-02-23T08:12:26;5.20;;;1.80;;
82125;SDS011;71668;51.400;6.758;2024-02-23T08:14:55;3.70;;;1.37;;
82125;SDS011;71668;51.400;6.758;2024-02-23T08:17:22;4.63;;;1.40;;
82125;SDS011;71668;51.400;6.758;2024-02-23T08:19:49;5.37;;;2.00;;
82125;SDS011;71668;51.400;6.758;2024-02-23T08:22:16;6.87;;;3.53;;
82125;SDS011;71668;51.400;6.758;2024-02-23T08:24:42;7.67;;;3.30;;
82125;SDS011;71668;51.400;6.758;2024-02-23T08:27:09;7.53;;;3.60;;
82125;SDS011;71668;51.400;6.758;2024-02-23T08:29:39;6.03;;;2.70;;
82125;SDS011;71668;51.400;6.758;2024-02-23T08:32:07;4.70;;;1.87;;
82125;SDS011;71668;51.400;6.758;2024-02-23T08:34:34;5.07;;;2.23;;
82125;SDS011;71668;51.400;6.758;2024-02-23T08:37:03;3.50;;;1.80;;
82125;SDS011;71668;51.400;6.758;2024-02-23T08:39:30;5.00;;;1.77;;
82125;SDS011;71668;51.400;6.758;2024-02-23T08:41:57;4.43;;;1.70;;
82125;SDS011;71668;51.400;6.758;2024-02-23T08:44:24;5.83;;;1.80;;
82125;SDS011;71668;51.400;6.758;2024-02-23T08:46:51;7.30;;;1.90;;
82125;SDS011;71668;51.400;6.758;2024-02-23T08:49:19;5.70;;;1.90;;
82125;SDS011;71668;51.400;6.758;2024-02-23T08:51:46;5.20;;;1.90;;
82125;SDS011;71668;51.400;6.758;2024-02-23T08:54:13;2.83;;;1.53;;
82125;SDS011;71668;51.400;6.758;2024-02-23T08:56:40;5.83;;;1.63;;
82125;SDS011;71668;51.400;6.758;2024-02-23T08:59:09;4.87;;;1.60;;
82125;SDS011;71668;51.400;6.758;2024-02-23T09:01:36;3.27;;;1.47;;
82125;SDS011;71668;51.400;6.758;2024-02-23T09:04:03;4.70;;;1.83;;
82125;SDS011;71668;51.400;6.758;2024-02-23T09:06:30;5.30;;;1.60;;
82125;SDS011;71668;51.400;6.758;2024-02-23T09:09:04;4.00;;;1.80;;
82125;SDS011;71668;51.400;6.758;2024-02-23T09:11:31;3.83;;;1.37;;
82125;SDS011;71668;51.400;6.758;2024-02-23T09:13:58;3.37;;;1.40;;
82125;SDS011;71668;51.400;6.758;2024-02-23T09:16:25;5.97;;;1.90;;
82125;SDS011;71668;51.400;6.758;2024-02-23T09:18:52;4.00;;;1.50;;
82125;SDS011;71668;51.400;6.758;2024-02-23T09:21:19;3.93;;;1.60;;
82125;SDS011;71668;51.400;6.758;2024-02-23T09:23:46;6.00;;;1.60;;
82125;SDS011;71668;51.400;6.758;2024-02-23T09:26:13;3.93;;;1.57;;
82125;SDS011;71668;51.400;6.758;2024-02-23T09:28:40;3.77;;;1.60;;
82125;SDS011;71668;51.400;6.758;2024-02-23T09:31:19;5.40;;;1.50;;
82125;SDS011;71668;51.400;6.758;2024-02-23T09:33:46;5.00;;;1.67;;
82125;SDS011;71668;51.400;6.758;2024-02-23T09:36:15;5.03;;;1.33;;
82125;SDS011;71668;51.400;6.758;2024-02-23T09:38:42;5.53;;;1.40;;
82125;SDS011;71668;51.400;6.758;2024-02-23T09:41:21;4.97;;;2.00;;
82125;SDS011;71668;51.400;6.758;2024-02-23T09:43:49;3.70;;;1.27;;
82125;SDS011;71668;51.400;6.758;2024-02-23T09:46:17;3.73;;;1.30;;
82125;SDS011;71668;51.400;6.758;2024-02-23T09:48:44;3.40;;;1.20;;
82125;SDS011;71668;51.400;6.758;2024-02-23T09:51:17;5.20;;;1.63;;
82125;SDS011;71668;51.400;6.758;2024-02-23T09:53:44;3.40;;;1.70;;
82125;SDS011;71668;51.400;6.758;2024-02-23T09:56:12;3.80;;;1.63;;
82125;SDS011;71668;51.400;6.758;2024-02-23T09:58:43;3.07;;;1.37;;
82125;SDS011;71668;51.400;6.758;2024-02-23T10:01:14;4.53;;;1.70;;
82125;SDS011;71668;51.400;6.758;2024-02-23T10:03:52;3.40;;;1.50;;
82125;SDS011;71668;51.400;6.758;2024-02-23T10:06:22;3.40;;;1.50;;
82125;SDS011;71668;51.400;6.758;2024-02-23T10:08:59;5.33;;;1.57;;
82125;SDS011;71668;51.400;6.758;2024-02-23T10:11:27;4.63;;;1.40;;
82125;SDS011;71668;51.400;6.758;2024-02-23T10:13:54;4.07;;;1.43;;
82125;SDS011;71668;51.400;6.758;2024-02-23T10:16:21;4.27;;;1.60;;
82125;SDS011;71668;51.400;6.758;2024-02-23T10:18:48;2.37;;;1.30;;
82125;SDS011;71668;51.400;6.758;2024-02-23T10:21:16;3.50;;;1.47;;
82125;SDS011;71668;51.400;6.758;2024-02-23T10:23:46;3.23;;;1.10;;
82125;SDS011;71668;51.400;6.758;2024-02-23T10:26:14;5.33;;;1.40;;
82125;SDS011;71668;51.400;6.758;2024-02-23T10:28:45;5.63;;;1.50;;
82125;SDS011;71668;51.400;6.758;2024-02-23T10:31:13;2.67;;;1.30;;
82125;SDS011;71668;51.400;6.758;2024-02-23T10:33:40;3.40;;;1.67;;
82125;SDS011;71668;51.400;6.758;2024-02-23T10:36:09;4.20;;;1.40;;
82125;SDS011;71668;51.400;6.758;2024-02-23T10:38:38;4.27;;;1.40;;
82125;SDS011;71668;51.400;6.758;2024-02-23T10:41:06;6.43;;;1.70;;
82125;SDS011;71668;51.400;6.758;2024-02-23T10:43:36;2.13;;;1.07;;
82125;SDS011;71668;51.400;6.758;2024-02-23T10:46:08;2.53;;;1.10;;
82125;SDS011;71668;51.400;6.758;2024-02-23T10:48:43;3.90;;;1.43;;
82125;SDS011;71668;51.400;6.758;2024-02-23T10:51:14;4.30;;;1.40;;
82125;SDS011;71668;51.400;6.758;2024-02-23T10:53:46;4.27;;;1.50;;
82125;SDS011;71668;51.400;6.758;2024-02-23T10:56:14;4.87;;;1.60;;
82125;SDS011;71668;51.400;6.758;2024-02-23T10:58:41;4.40;;;1.30;;
82125;SDS011;71668;51.400;6.758;2024-02-23T11:01:08;3.13;;;1.10;;
82125;SDS011;71668;51.400;6.758;2024-02-23T11:03:37;3.50;;;1.50;;
82125;SDS011;71668;51.400;6.758;2024-02-23T11:06:06;4.10;;;1.50;;
82125;SDS011;71668;51.400;6.758;2024-02-23T11:08:34;4.43;;;1.37;;
82125;SDS011;71668;51.400;6.758;2024-02-23T11:11:10;2.87;;;1.43;;
82125;SDS011;71668;51.400;6.758;2024-02-23T11:13:39;3.93;;;1.40;;
82125;SDS011;71668;51.400;6.758;2024-02-23T11:16:09;3.87;;;1.40;;
82125;SDS011;71668;51.400;6.758;2024-02-23T11:18:36;4.73;;;1.70;;
82125;SDS011;71668;51.400;6.758;2024-02-23T11:21:08;3.37;;;1.43;;
82125;SDS011;71668;51.400;6.758;2024-02-23T11:23:42;2.87;;;1.37;;
82125;SDS011;71668;51.400;6.758;2024-02-23T11:26:19;7.40;;;1.93;;
82125;SDS011;71668;51.400;6.758;2024-02-23T11:28:49;5.40;;;2.07;;
82125;SDS011;71668;51.400;6.758;2024-02-23T11:31:21;3.43;;;1.40;;
82125;SDS011;71668;51.400;6.758;2024-02-23T11:33:53;5.03;;;1.40;;
82125;SDS011;71668;51.400;6.758;2024-02-23T11:38:57;4.83;;;1.50;;
82125;SDS011;71668;51.400;6.758;2024-02-23T11:41:25;3.97;;;1.30;;
82125;SDS011;71668;51.400;6.758;2024-02-23T11:43:53;2.77;;;1.33;;
82125;SDS011;71668;51.400;6.758;2024-02-23T11:46:21;5.33;;;2.00;;
82125;SDS011;71668;51.400;6.758;2024-02-23T11:48:49;3.30;;;1.23;;
82125;SDS011;71668;51.400;6.758;2024-02-23T11:51:22;6.53;;;1.70;;
82125;SDS011;71668;51.400;6.758;2024-02-23T11:53:50;6.00;;;2.37;;
82125;SDS011;71668;51.400;6.758;2024-02-23T11:56:18;5.90;;;1.50;;
82125;SDS011;71668;51.400;6.758;2024-02-23T11:58:46;5.37;;;1.63;;
82125;SDS011;71668;51.400;6.758;2024-02-23T12:01:13;5.23;;;1.60;;
82125;SDS011;71668;51.400;6.758;2024-02-23T12:03:40;4.77;;;1.53;;
82125;SDS011;71668;51.400;6.758;2024-02-23T12:06:10;5.23;;;1.83;;
82125;SDS011;71668;51.400;6.758;2024-02-23T12:08:36;3.53;;;1.53;;
82125;SDS011;71668;51.400;6.758;2024-02-23T12:11:08;3.60;;;1.33;;
82125;SDS011;71668;51.400;6.758;2024-02-23T12:13:36;6.60;;;2.00;;
82125;SDS011;71668;51.400;6.758;2024-02-23T12:16:03;4.20;;;1.80;;
82125;SDS011;71668;51.400;6.758;2024-02-23T12:18:34;4.87;;;1.83;;
82125;SDS011;71668;51.400;6.758;2024-02-23T12:21:02;4.80;;;1.63;;
82125;SDS011;71668;51.400;6.758;2024-02-23T12:26:09;3.97;;;1.50;;
82125;SDS011;71668;51.400;6.758;2024-02-23T12:28:37;6.37;;;2.00;;
82125;SDS011;71668;51.400;6.758;2024-02-23T12:31:04;4.30;;;1.73;;
82125;SDS011;71668;51.400;6.758;2024-02-23T12:33:32;6.50;;;1.87;;
82125;SDS011;71668;51.400;6.758;2024-02-23T12:36:07;4.83;;;1.80;;
82125;SDS011;71668;51.400;6.758;2024-02-23T12:38:35;6.27;;;2.03;;
82125;SDS011;71668;51.400;6.758;2024-02-23T12:41:02;4.83;;;1.77;;
82125;SDS011;71668;51.400;6.758;2024-02-23T12:43:30;4.07;;;1.67;;
82125;SDS011;71668;51.400;6.758;2024-02-23T12:45:57;6.60;;;2.33;;
82125;SDS011;71668;51.400;6.758;2024-02-23T12:48:24;5.83;;;2.00;;
82125;SDS011;71668;51.400;6.758;2024-02-23T12:50:51;7.53;;;2.03;;
82125;SDS011;71668;51.400;6.758;2024-02-23T12:53:38;3.77;;;1.50;;
82125;SDS011;71668;51.400;6.758;2024-02-23T12:56:07;5.33;;;1.50;;
82125;SDS011;71668;51.400;6.758;2024-02-23T12:58:40;5.33;;;1.63;;
82125;SDS011;71668;51.400;6.758;2024-02-23T13:01:08;4.27;;;1.90;;
82125;SDS011;71668;51.400;6.758;2024-02-23T13:03:36;5.67;;;1.60;;
82125;SDS011;71668;51.400;6.758;2024-02-23T13:06:04;4.40;;;1.57;;
82125;SDS011;71668;51.400;6.758;2024-02-23T13:08:32;5.43;;;1.70;;
82125;SDS011;71668;51.400;6.758;2024-02-23T13:11:02;6.40;;;2.37;;
82125;SDS011;71668;51.400;6.758;2024-02-23T13:13:29;3.73;;;1.37;;
82125;SDS011;71668;51.400;6.758;2024-02-23T13:15:57;2.57;;;1.30;;
82125;SDS011;71668;51.400;6.758;2024-02-23T13:18:23;8.17;;;1.87;;
82125;SDS011;71668;51.400;6.758;2024-02-23T13:20:51;8.20;;;2.20;;
82125;SDS011;71668;51.400;6.758;2024-02-23T13:23:18;6.93;;;2.90;;
82125;SDS011;71668;51.400;6.758;2024-02-23T13:25:45;7.40;;;1.60;;
82125;SDS011;71668;51.400;6.758;2024-02-23T13:28:12;6.33;;;1.70;;
82125;SDS011;71668;51.400;6.758;2024-02-23T13:30:39;4.00;;;1.70;;
82125;SDS011;71668;51.400;6.758;2024-02-23T13:33:06;6.90;;;1.60;;
82125;SDS011;71668;51.400;6.758;2024-02-23T13:35:34;6.13;;;1.80;;
82125;SDS011;71668;51.400;6.758;2024-02-23T13:38:01;7.73;;;1.90;;
82125;SDS011;71668;51.400;6.758;2024-02-23T13:40:31;4.73;;;1.60;;
82125;SDS011;71668;51.400;6.758;2024-02-23T13:42:58;4.40;;;1.70;;
82125;SDS011;71668;51.400;6.758;2024-02-23T13:45:25;4.10;;;1.70;;
82125;SDS011;71668;51.400;6.758;2024-02-23T13:47:56;5.03;;;1.37;;
82125;SDS011;71668;51.400;6.758;2024-02-23T13:50:24;4.83;;;1.27;;
82125;SDS011;71668;51.400;6.758;2024-02-23T13:52:51;5.47;;;1.90;;
82125;SDS011;71668;51.400;6.758;2024-02-23T13:55:19;2.53;;;1.30;;
82125;SDS011;71668;51.400;6.758;2024-02-23T13:57:49;5.43;;;1.60;;
82125;SDS011;71668;51.400;6.758;2024-02-23T14:00:17;5.33;;;1.83;;
82125;SDS011;71668;51.400;6.758;2024-02-23T14:02:45;4.87;;;1.60;;
82125;SDS011;71668;51.400;6.758;2024-02-23T14:05:13;3.33;;;1.40;;
82125;SDS011;71668;51.400;6.758;2024-02-23T14:07:41;2.90;;;1.20;;
82125;SDS011;71668;51.400;6.758;2024-02-23T14:10:11;3.90;;;1.47;;
82125;SDS011;71668;51.400;6.758;2024-02-23T14:12:41;6.23;;;2.07;;
82125;SDS011;71668;51.400;6.758;2024-02-23T14:15:08;4.30;;;1.60;;
82125;SDS011;71668;51.400;6.758;2024-02-23T14:17:36;5.00;;;1.40;;
82125;SDS011;71668;51.400;6.758;2024-02-23T14:20:08;3.53;;;1.33;;
82125;SDS011;71668;51.400;6.758;2024-02-23T14:22:36;4.90;;;1.57;;
82125;SDS011;71668;51.400;6.758;2024-02-23T14:25:03;4.37;;;1.50;;
82125;SDS011;71668;51.400;6.758;2024-02-23T14:27:31;3.83;;;1.37;;
82125;SDS011;71668;51.400;6.758;2024-02-23T14:29:58;4.40;;;1.40;;
82125;SDS011;71668;51.400;6.758;2024-02-23T14:32:26;3.80;;;1.50;;
82125;SDS011;71668;51.400;6.758;2024-02-23T14:34:53;3.10;;;1.47;;
82125;SDS011;71668;51.400;6.758;2024-02-23T14:37:21;5.43;;;1.90;;
82125;SDS011;71668;51.400;6.758;2024-02-23T14:39:48;2.50;;;1.37;;
82125;SDS011;71668;51.400;6.758;2024-02-23T14:42:20;3.30;;;1.60;;
82125;SDS011;71668;51.400;6.758;2024-02-23T14:44:47;2.53;;;1.40;;
82125;SDS011;71668;51.400;6.758;2024-02-23T14:47:14;4.33;;;1.37;;
82125;SDS011;71668;51.400;6.758;2024-02-23T14:49:40;3.53;;;1.47;;
82125;SDS011;71668;51.400;6.758;2024-02-23T14:52:07;2.50;;;1.20;;
82125;SDS011;71668;51.400;6.758;2024-02-23T14:54:34;2.10;;;1.10;;
82125;SDS011;71668;51.400;6.758;2024-02-23T14:57:02;3.50;;;1.50;;
82125;SDS011;71668;51.400;6.758;2024-02-23T14:59:30;5.13;;;1.77;;